createdAt,value
2018-11-21T00:00:01.177Z,24.43
2018-11-21T00:03:23.113Z,22.47
2018-11-21T00:06:45.448Z,23.47
2018-11-21T00:10:09.552Z,23.53
2018-11-21T00:13:31.776Z,23.30
2018-11-21T00:16:53.522Z,21.97
2018-11-21T00:20:15.178Z,24.13
2018-11-21T00:23:37.074Z,22.93
2018-11-21T00:26:59.190Z,20.83
2018-11-21T00:30:21.302Z,23.63
2018-11-21T00:33:43.223Z,20.87
2018-11-21T00:37:05.263Z,21.50
2018-11-21T00:40:26.948Z,21.13
2018-11-21T00:43:48.598Z,23.13
2018-11-21T00:47:10.530Z,21.73
2018-11-21T00:50:32.482Z,23.37
2018-11-21T00:53:54.451Z,22.27
2018-11-21T00:57:16.437Z,21.50
2018-11-21T01:00:38.105Z,19.60
2018-11-21T01:04:07.237Z,21.83
2018-11-21T01:07:29.198Z,19.50
2018-11-21T01:10:50.973Z,20.40
2018-11-21T01:14:13.072Z,21.37
2018-11-21T01:17:35.221Z,22.53
2018-11-21T01:20:56.957Z,18.83
2018-11-21T01:24:18.628Z,19.67
2018-11-21T01:27:40.297Z,22.43
2018-11-21T01:31:02.441Z,17.33
2018-11-21T01:34:24.477Z,19.23
2018-11-21T01:37:46.705Z,23.27
2018-11-21T01:41:08.893Z,20.53
2018-11-21T01:44:30.803Z,22.73
2018-11-21T01:47:52.857Z,22.43
2018-11-21T01:51:14.954Z,22.13
2018-11-21T01:54:36.533Z,20.43
2018-11-21T01:57:58.742Z,20.63
2018-11-21T02:01:20.594Z,23.07
2018-11-21T02:04:42.560Z,23.00
2018-11-21T02:08:04.470Z,20.33
2018-11-21T02:11:26.283Z,22.63
2018-11-21T02:14:48.323Z,20.13
2018-11-21T02:18:10.554Z,22.53
2018-11-21T02:21:32.852Z,23.03
2018-11-21T02:24:54.792Z,23.20
2018-11-21T02:28:16.741Z,18.90
2018-11-21T02:31:38.499Z,22.57
2018-11-21T02:35:00.189Z,23.27
2018-11-21T02:38:22.256Z,22.33
2018-11-21T02:41:44.338Z,23.33
2018-11-21T02:45:06.195Z,22.73
2018-11-21T02:48:28.085Z,24.03
2018-11-21T02:51:50.118Z,24.63
2018-11-21T02:55:11.781Z,24.60
2018-11-21T02:58:33.561Z,24.20
2018-11-21T03:01:55.414Z,23.83
2018-11-21T03:05:17.861Z,24.37
2018-11-21T03:08:39.715Z,23.77
2018-11-21T03:12:01.621Z,24.97
2018-11-21T03:15:23.345Z,24.87
2018-11-21T03:18:45.082Z,22.00
2018-11-21T03:22:06.783Z,25.47
2018-11-21T03:25:28.688Z,24.93
2018-11-21T03:28:50.325Z,24.67
2018-11-21T03:32:12.325Z,24.00
2018-11-21T03:35:34.058Z,23.17
2018-11-21T03:38:56.257Z,20.03
2018-11-21T03:42:18.174Z,22.50
2018-11-21T03:45:39.925Z,24.40
2018-11-21T03:49:02.029Z,22.77
2018-11-21T03:52:23.937Z,25.50
2018-11-21T03:55:46.089Z,20.23
2018-11-21T03:59:08.260Z,24.30
2018-11-21T04:02:30.502Z,23.07
2018-11-21T04:05:52.492Z,23.67
2018-11-21T04:09:14.223Z,24.00
2018-11-21T04:12:36.090Z,22.53
2018-11-21T04:15:58.331Z,24.40
2018-11-21T04:19:19.862Z,23.73
2018-11-21T04:22:41.745Z,24.63
2018-11-21T04:26:03.582Z,23.87
2018-11-21T04:29:25.409Z,24.10
2018-11-21T04:32:47.223Z,24.13
2018-11-21T04:36:09.476Z,22.53
2018-11-21T04:39:31.520Z,23.90
2018-11-21T04:42:53.334Z,21.67
2018-11-21T04:46:15.367Z,23.43
2018-11-21T04:49:37.118Z,23.17
2018-11-21T04:52:59.028Z,22.30
2018-11-21T04:56:20.709Z,22.27
2018-11-21T04:59:42.404Z,23.03
2018-11-21T05:03:04.632Z,22.00
2018-11-21T05:06:26.306Z,23.40
2018-11-21T05:09:48.448Z,23.63
2018-11-21T05:13:10.469Z,23.67
2018-11-21T05:16:32.669Z,23.40
2018-11-21T05:19:54.849Z,23.40
2018-11-21T05:23:17.149Z,22.67
2018-11-21T05:26:39.148Z,23.10
2018-11-21T05:30:01.595Z,23.90
2018-11-21T05:33:24.798Z,22.90
2018-11-21T05:36:47.063Z,23.10
2018-11-21T05:40:09.546Z,21.70
2018-11-21T05:43:31.404Z,23.47
2018-11-21T05:46:53.783Z,22.50
2018-11-21T05:50:14.681Z,22.83
2018-11-21T05:53:36.657Z,24.07
2018-11-21T05:56:58.480Z,24.13
2018-11-21T06:00:20.253Z,20.67
2018-11-21T06:03:42.274Z,21.03
2018-11-21T06:07:04.118Z,23.00
2018-11-21T06:10:26.137Z,25.63
2018-11-21T06:13:48.613Z,23.93
2018-11-21T06:17:10.478Z,23.00
2018-11-21T06:20:32.626Z,23.33
2018-11-21T06:23:54.897Z,22.07
2018-11-21T06:27:17.057Z,24.73
2018-11-21T06:30:38.993Z,21.93
2018-11-21T06:34:00.989Z,22.43
2018-11-21T06:37:23.021Z,23.87
2018-11-21T06:40:45.004Z,23.03
2018-11-21T06:44:06.760Z,19.87
2018-11-21T06:47:28.844Z,22.63
2018-11-21T06:50:50.465Z,21.53
2018-11-21T06:54:13.496Z,23.23
2018-11-21T06:57:35.481Z,23.43
2018-11-21T07:00:57.821Z,22.80
2018-11-21T07:04:19.971Z,22.83
2018-11-21T07:07:41.897Z,23.07
2018-11-21T07:11:03.707Z,23.30
2018-11-21T07:14:25.557Z,22.93
2018-11-21T07:17:47.576Z,22.67
2018-11-21T07:21:09.543Z,23.87
2018-11-21T07:24:31.348Z,21.67
2018-11-21T07:27:53.441Z,14.37
2018-11-21T07:31:15.412Z,22.17
2018-11-21T07:34:37.638Z,21.20
2018-11-21T07:37:59.385Z,23.43
2018-11-21T07:41:21.727Z,20.20
2018-11-21T07:44:44.149Z,24.63
2018-11-21T07:48:06.299Z,23.43
2018-11-21T07:51:28.405Z,25.77
2018-11-21T07:54:50.914Z,23.47
2018-11-21T07:58:15.707Z,22.80
2018-11-21T08:01:46.359Z,24.90
2018-11-21T08:05:13.891Z,26.00
2018-11-21T08:08:52.435Z,24.50
2018-11-21T08:12:24.613Z,25.20
2018-11-21T08:16:08.872Z,24.17
2018-11-21T08:19:42.913Z,25.90
2018-11-21T08:23:33.725Z,25.43
2018-11-21T08:27:22.756Z,24.73
2018-11-21T08:30:44.857Z,18.13
2018-11-21T08:34:06.659Z,22.03
2018-11-21T08:37:28.384Z,21.47
2018-11-21T08:40:50.015Z,19.93
2018-11-21T08:44:11.723Z,24.37
2018-11-21T08:47:33.640Z,22.70
2018-11-21T08:50:56.094Z,20.63
2018-11-21T08:54:18.254Z,23.57
2018-11-21T08:57:40.079Z,20.17
2018-11-21T09:01:02.162Z,21.83
2018-11-21T09:04:24.303Z,22.87
2018-11-21T09:07:46.344Z,23.30
2018-11-21T09:11:08.229Z,23.10
2018-11-21T09:14:30.805Z,21.80
2018-11-21T09:17:52.781Z,22.80
2018-11-21T09:21:14.332Z,22.30
2018-11-21T09:24:35.847Z,21.13
2018-11-21T09:27:57.597Z,24.03
2018-11-21T09:31:19.418Z,23.80
2018-11-21T09:34:41.167Z,21.30
2018-11-21T09:38:03.527Z,21.23
2018-11-21T09:41:25.300Z,22.40
2018-11-21T09:44:47.452Z,23.30
2018-11-21T09:48:09.246Z,23.47
2018-11-21T09:51:31.009Z,23.97
2018-11-21T09:54:53.129Z,24.57
2018-11-21T09:58:15.361Z,21.00
2018-11-21T10:02:14.238Z,22.00
2018-11-21T10:05:36.217Z,21.93
2018-11-21T10:08:59.903Z,24.40
2018-11-21T10:12:21.730Z,25.23
2018-11-21T10:15:43.653Z,26.27
2018-11-21T10:19:06.213Z,28.00
2018-11-21T10:22:28.138Z,28.43
2018-11-21T10:25:50.572Z,25.53
2018-11-21T10:29:12.224Z,22.63
2018-11-21T10:32:34.265Z,26.20
2018-11-21T10:36:25.730Z,28.63
2018-11-21T10:39:49.015Z,27.63
2018-11-21T10:43:12.753Z,26.47
2018-11-21T10:46:36.009Z,28.30
2018-11-21T10:49:59.279Z,27.07
2018-11-21T10:53:22.296Z,25.23
2018-11-21T10:56:45.541Z,28.10
2018-11-21T11:00:16.218Z,25.87
2018-11-21T11:03:43.594Z,27.07
2018-11-21T11:07:27.548Z,26.57
2018-11-21T11:11:10.717Z,26.33
2018-11-21T11:15:04.648Z,29.33
2018-11-21T11:18:37.873Z,28.63
2018-11-21T11:22:25.030Z,28.63
2018-11-21T11:26:12.538Z,27.90
2018-11-21T11:29:54.522Z,28.37
2018-11-21T11:33:30.922Z,25.03
2018-11-21T11:37:11.802Z,26.10
2018-11-21T11:40:52.286Z,20.97
2018-11-21T11:44:39.690Z,24.17
2018-11-21T11:48:18.906Z,19.27
2018-11-21T11:51:51.490Z,27.93
2018-11-21T11:55:31.828Z,23.67
2018-11-21T11:59:12.443Z,26.90
2018-11-21T12:02:53.630Z,27.40
2018-11-21T12:06:47.618Z,27.40
2018-11-21T12:10:29.475Z,24.93
2018-11-21T12:14:29.497Z,25.70
2018-11-21T12:18:20.310Z,26.67
2018-11-21T12:22:00.986Z,24.63
2018-11-21T12:25:37.339Z,28.57
2018-11-21T12:29:17.679Z,25.50
2018-11-21T12:32:48.676Z,28.23
2018-11-21T12:36:29.449Z,25.53
2018-11-21T12:40:14.269Z,26.27
2018-11-21T12:44:11.235Z,26.00
2018-11-21T12:47:45.474Z,25.77
2018-11-21T12:51:33.630Z,27.10
2018-11-21T12:55:14.525Z,25.07
2018-11-21T12:59:03.890Z,24.37
2018-11-21T13:02:35.144Z,22.50
2018-11-21T13:06:10.939Z,26.90
2018-11-21T13:10:08.197Z,23.83
2018-11-21T13:13:51.490Z,24.30
2018-11-21T13:17:32.206Z,24.87
2018-11-21T13:21:23.058Z,26.40
2018-11-21T13:25:03.891Z,21.80
2018-11-21T13:28:44.207Z,25.03
2018-11-21T13:32:24.476Z,24.57
2018-11-21T13:36:05.853Z,24.07
2018-11-21T13:39:46.583Z,22.00
2018-11-21T13:43:26.991Z,22.03
2018-11-21T13:47:09.673Z,23.63
2018-11-21T13:50:50.128Z,24.27
2018-11-21T13:54:30.541Z,25.27
2018-11-21T13:57:53.663Z,24.70
2018-11-21T14:01:17.097Z,24.90
2018-11-21T14:04:40.360Z,25.03
2018-11-21T14:08:03.559Z,23.67
2018-11-21T14:11:26.615Z,25.70
2018-11-21T14:14:50.082Z,25.53
2018-11-21T14:18:13.502Z,25.77
2018-11-21T14:21:37.218Z,22.77
2018-11-21T14:25:00.554Z,25.03
2018-11-21T14:28:23.678Z,23.97
2018-11-21T14:31:47.742Z,23.50
2018-11-21T14:35:12.935Z,25.30
2018-11-21T14:38:36.115Z,24.80
2018-11-21T14:41:59.494Z,25.00
2018-11-21T14:45:22.534Z,23.57
2018-11-21T14:48:45.573Z,24.33
2018-11-21T14:52:08.903Z,20.17
2018-11-21T14:55:31.898Z,24.57
2018-11-21T14:58:55.373Z,24.57
2018-11-21T15:02:18.772Z,24.53
2018-11-21T15:05:41.973Z,20.03
2018-11-21T15:09:08.641Z,21.27
2018-11-21T15:12:31.850Z,21.50
2018-11-21T15:15:54.736Z,24.93
2018-11-21T15:19:18.011Z,24.57
2018-11-21T15:22:41.042Z,25.30
2018-11-21T15:26:04.264Z,21.37
2018-11-21T15:29:27.887Z,25.27
2018-11-21T15:32:50.782Z,24.80
2018-11-21T15:36:13.890Z,20.67
2018-11-21T15:39:37.030Z,25.83
2018-11-21T15:43:00.290Z,23.47
2018-11-21T15:46:23.473Z,24.83
2018-11-21T15:49:46.266Z,24.97
2018-11-21T15:53:09.129Z,21.90
2018-11-21T15:56:32.218Z,24.73
2018-11-21T15:59:54.956Z,25.53
2018-11-21T16:03:18.174Z,25.70
2018-11-21T16:06:41.454Z,26.47
2018-11-21T16:10:09.867Z,23.37
2018-11-21T16:13:29.275Z,24.10
2018-11-21T16:16:52.564Z,26.13
2018-11-21T16:20:16.911Z,24.30
2018-11-21T16:23:40.306Z,25.00
2018-11-21T16:27:03.833Z,21.47
2018-11-21T16:30:27.590Z,26.97
2018-11-21T16:33:50.428Z,26.70
2018-11-21T16:37:13.667Z,26.30
2018-11-21T16:40:37.351Z,24.63
2018-11-21T16:44:00.519Z,24.73
2018-11-21T16:47:23.713Z,24.17
2018-11-21T16:50:46.900Z,26.47
2018-11-21T16:54:10.318Z,26.47
2018-11-21T16:57:33.630Z,25.03
2018-11-21T17:00:56.914Z,26.47
2018-11-21T17:04:20.048Z,27.70
2018-11-21T17:07:43.492Z,26.43
2018-11-21T17:11:06.886Z,28.57
2018-11-21T17:14:29.638Z,28.07
2018-11-21T17:17:52.479Z,26.57
2018-11-21T17:21:15.954Z,28.50
2018-11-21T17:24:39.161Z,27.33
2018-11-21T17:28:02.865Z,28.17
2018-11-21T17:31:25.685Z,28.77
2018-11-21T17:34:48.891Z,26.10
2018-11-21T17:38:12.056Z,25.43
2018-11-21T17:41:35.215Z,26.37
2018-11-21T17:44:58.825Z,29.67
2018-11-21T17:48:22.042Z,27.10
2018-11-21T17:51:44.892Z,30.17
2018-11-21T17:55:10.420Z,29.20
2018-11-21T17:58:33.350Z,25.83
2018-11-21T18:01:56.141Z,28.03
2018-11-21T18:05:23.809Z,27.60
2018-11-21T18:08:46.707Z,30.97
2018-11-21T18:12:09.610Z,30.00
2018-11-21T18:15:32.849Z,33.03
2018-11-21T18:18:56.150Z,29.90
2018-11-21T18:22:19.385Z,33.87
2018-11-21T18:25:44.196Z,34.50
2018-11-21T18:29:11.608Z,32.30
2018-11-21T18:32:30.143Z,33.20
2018-11-21T18:35:53.167Z,32.47
2018-11-21T18:39:16.015Z,32.97
2018-11-21T18:42:39.086Z,34.43
2018-11-21T18:46:02.278Z,34.00
2018-11-21T18:49:25.584Z,30.53
2018-11-21T18:52:50.125Z,31.07
2018-11-21T18:56:31.918Z,30.77
2018-11-21T19:00:18.107Z,32.93
2018-11-21T19:03:41.346Z,33.47
2018-11-21T19:07:05.230Z,31.17
2018-11-21T19:10:28.375Z,21.60
2018-11-21T19:13:52.169Z,31.77
2018-11-21T19:17:15.181Z,27.63
2018-11-21T19:20:38.366Z,31.63
2018-11-21T19:24:01.670Z,30.47
2018-11-21T19:27:25.293Z,31.13
2018-11-21T19:30:48.674Z,29.80
2018-11-21T19:34:11.924Z,32.03
2018-11-21T19:37:34.959Z,30.63
2018-11-21T19:40:58.101Z,30.47
2018-11-21T19:44:21.409Z,31.80
2018-11-21T19:47:44.979Z,29.20
2018-11-21T19:51:08.678Z,31.43
2018-11-21T19:54:31.429Z,32.43
2018-11-21T19:57:54.549Z,31.47
2018-11-21T20:01:17.754Z,30.90
2018-11-21T20:04:40.941Z,30.77
2018-11-21T20:08:04.241Z,30.30
2018-11-21T20:11:27.261Z,28.97
2018-11-21T20:14:50.300Z,32.90
2018-11-21T20:18:13.582Z,32.70
2018-11-21T20:21:36.490Z,27.90
2018-11-21T20:24:59.658Z,29.77
2018-11-21T20:28:23.050Z,30.37
2018-11-21T20:31:46.228Z,30.77
2018-11-21T20:35:10.343Z,30.70
2018-11-21T20:38:34.025Z,29.53
2018-11-21T20:41:57.219Z,30.27
2018-11-21T20:45:21.797Z,33.17
2018-11-21T20:48:45.161Z,31.73
2018-11-21T20:52:08.370Z,31.57
2018-11-21T20:55:32.498Z,32.37
2018-11-21T20:58:56.129Z,31.03
2018-11-21T21:02:19.165Z,32.47
2018-11-21T21:05:42.328Z,34.00
2018-11-21T21:09:09.709Z,33.13
2018-11-21T21:12:33.281Z,27.03
2018-11-21T21:15:56.908Z,26.73
2018-11-21T21:19:20.168Z,32.67
2018-11-21T21:22:43.937Z,33.03
2018-11-21T21:26:07.918Z,31.40
2018-11-21T21:29:31.500Z,30.47
2018-11-21T21:32:54.837Z,29.10
2018-11-21T21:36:17.781Z,31.57
2018-11-21T21:39:40.988Z,31.33
2018-11-21T21:43:03.929Z,32.50
2018-11-21T21:46:27.229Z,32.33
2018-11-21T21:49:53.714Z,31.73
2018-11-21T21:53:16.869Z,32.63
2018-11-21T21:56:39.734Z,27.47
2018-11-21T22:00:03.590Z,30.67
2018-11-21T22:03:26.036Z,28.03
2018-11-21T22:06:48.985Z,30.63
2018-11-21T22:10:13.792Z,32.00
2018-11-21T22:13:36.526Z,31.53
2018-11-21T22:16:59.744Z,31.43
2018-11-21T22:20:23.400Z,31.53
2018-11-21T22:23:46.198Z,30.87
2018-11-21T22:27:09.039Z,27.17
2018-11-21T22:30:32.068Z,30.50
2018-11-21T22:33:55.085Z,29.30
2018-11-21T22:37:18.518Z,32.40
2018-11-21T22:40:41.500Z,29.03
2018-11-21T22:44:04.816Z,27.70
2018-11-21T22:47:28.179Z,29.20
2018-11-21T22:50:51.313Z,28.30
2018-11-21T22:54:14.584Z,28.23
2018-11-21T22:57:37.996Z,22.90
2018-11-21T23:01:01.586Z,27.30
2018-11-21T23:04:24.572Z,25.30
2018-11-21T23:07:47.698Z,28.70
2018-11-21T23:11:11.095Z,30.93
2018-11-21T23:14:34.295Z,26.07
2018-11-21T23:17:57.746Z,29.13
2018-11-21T23:21:20.515Z,22.40
2018-11-21T23:24:43.956Z,29.13
2018-11-21T23:28:07.551Z,30.83
2018-11-21T23:31:30.917Z,29.17
2018-11-21T23:34:53.881Z,30.40
2018-11-21T23:38:16.818Z,26.67
2018-11-21T23:41:40.190Z,30.27
2018-11-21T23:45:03.950Z,29.97
2018-11-21T23:48:26.841Z,27.67
2018-11-21T23:51:49.968Z,29.87
2018-11-21T23:55:15.650Z,26.93
2018-11-21T23:58:38.749Z,30.30
